Terminal Aerodrome Forecast
Issued by NWS

Home | Current Version | Previous Version | Text Only | Print | Product List | Glossary On
Versions: 1 2 3 4 5 6 7 8 9 10 11 12 13 14 15 16 17 18 19 20 21 22 23 24 25 26 27 28 29 30 31 32 33 34
000
FTUS45 KGJT 301741 CCA
TAFCNY
TAF COR
KCNY 301741Z 3018/0118 05008KT P6SM SCT130
      TEMPO 3022/0102 03015G25KT
     FM010900 03009KT P6SM VCSH SCT250
     FM011200 05010KT P6SM VCSH BKN110=

USA.gov is the U.S. government's official web portal to all federal, state and local government web resources and services.